createdAt,value
2019-01-21T00:00:07.348Z,22.6
2019-01-21T00:02:05.004Z,22.6
2019-01-21T00:04:04.699Z,22.6
2019-01-21T00:06:05.478Z,22.6
2019-01-21T00:08:07.688Z,22.6
2019-01-21T00:10:05.439Z,22.6
2019-01-21T00:12:05.155Z,22.6
2019-01-21T00:14:05.351Z,22.5
2019-01-21T00:16:05.650Z,22.5
2019-01-21T00:18:05.557Z,22.5
2019-01-21T00:20:05.273Z,22.5
2019-01-21T00:22:05.178Z,22.5
2019-01-21T00:24:07.396Z,22.5
2019-01-21T00:26:05.094Z,22.5
2019-01-21T00:28:04.780Z,22.5
2019-01-21T00:30:05.045Z,22.5
2019-01-21T00:32:04.755Z,22.5
2019-01-21T00:34:05.003Z,22.5
2019-01-21T00:36:04.663Z,22.5
2019-01-21T00:38:07.853Z,22.5
2019-01-21T00:40:05.500Z,22.4
2019-01-21T00:42:05.270Z,22.5
2019-01-21T00:44:04.947Z,22.4
2019-01-21T00:46:07.493Z,22.4
2019-01-21T00:48:07.256Z,22.4
2019-01-21T00:50:04.966Z,22.4
2019-01-21T00:52:04.612Z,22.4
2019-01-21T00:54:05.298Z,22.4
2019-01-21T00:56:04.978Z,22.4
2019-01-21T00:58:04.641Z,22.4
2019-01-21T01:00:05.287Z,22.4
2019-01-21T01:02:04.967Z,22.4
2019-01-21T01:04:07.229Z,22.3
2019-01-21T01:06:04.919Z,22.3
2019-01-21T01:08:08.108Z,22.3
2019-01-21T01:10:07.844Z,22.3
2019-01-21T01:12:08.116Z,22.3
2019-01-21T01:14:04.829Z,22.3
2019-01-21T01:16:05.518Z,22.3
2019-01-21T01:18:13.020Z,22.3
2019-01-21T01:20:04.695Z,22.3
2019-01-21T01:22:05.370Z,22.3
2019-01-21T01:24:07.633Z,22.2
2019-01-21T01:26:05.419Z,22.3
2019-01-21T01:28:05.116Z,22.3
2019-01-21T01:30:04.762Z,22.3
2019-01-21T01:32:07.999Z,22.3
2019-01-21T01:34:04.653Z,22.3
2019-01-21T01:36:04.979Z,22.2
2019-01-21T01:38:04.653Z,22.2
2019-01-21T01:40:05.358Z,22.2
2019-01-21T01:42:07.642Z,22.2
2019-01-21T01:44:04.900Z,22.2
2019-01-21T01:46:04.609Z,22.2
2019-01-21T01:48:05.293Z,22.2
2019-01-21T01:50:05.045Z,22.2
2019-01-21T01:52:04.830Z,22.2
2019-01-21T01:54:05.611Z,22.2
2019-01-21T01:56:05.335Z,22.2
2019-01-21T01:58:10.137Z,22.2
2019-01-21T02:00:04.773Z,22.2
2019-01-21T02:02:05.492Z,22.2
2019-01-21T02:04:04.715Z,22.2
2019-01-21T02:06:05.588Z,22.2
2019-01-21T02:08:07.377Z,22.2
2019-01-21T02:10:05.093Z,22.1
2019-01-21T02:12:04.795Z,22.1
2019-01-21T02:14:05.534Z,22.2
2019-01-21T02:16:05.312Z,22.1
2019-01-21T02:18:07.789Z,22.1
2019-01-21T02:20:05.362Z,22.1
2019-01-21T02:22:04.704Z,22.1
2019-01-21T02:24:05.495Z,22.1
2019-01-21T02:26:05.235Z,22.1
2019-01-21T02:28:04.993Z,22.1
2019-01-21T02:30:04.692Z,22.1
2019-01-21T02:32:05.411Z,22.1
2019-01-21T02:34:04.742Z,22.1
2019-01-21T02:36:05.642Z,22.1
2019-01-21T02:38:04.908Z,22.1
2019-01-21T02:40:05.225Z,22.1
2019-01-21T02:42:04.988Z,22.1
2019-01-21T02:44:07.239Z,22.1
2019-01-21T02:46:05.097Z,22.1
2019-01-21T02:48:04.866Z,22.1
2019-01-21T02:50:10.582Z,22.1
2019-01-21T02:52:05.443Z,22
2019-01-21T02:54:05.343Z,22.1
2019-01-21T02:56:05.047Z,22.1
2019-01-21T02:58:04.735Z,22
2019-01-21T03:00:05.462Z,22
2019-01-21T03:02:10.401Z,22
2019-01-21T03:04:05.546Z,22
2019-01-21T03:06:04.856Z,22
2019-01-21T03:08:05.627Z,22
2019-01-21T03:10:05.210Z,22
2019-01-21T03:12:05.471Z,22
2019-01-21T03:14:05.221Z,22
2019-01-21T03:16:04.964Z,22
2019-01-21T03:18:07.990Z,22
2019-01-21T03:20:05.598Z,22
2019-01-21T03:22:10.411Z,22
2019-01-21T03:24:05.226Z,22
2019-01-21T03:26:05.197Z,22
2019-01-21T03:28:05.176Z,22
2019-01-21T03:30:09.417Z,21.9
2019-01-21T03:32:05.153Z,21.9
2019-01-21T03:34:05.397Z,21.9
2019-01-21T03:36:05.246Z,21.9
2019-01-21T03:38:08.069Z,21.9
2019-01-21T03:40:04.783Z,21.9
2019-01-21T03:42:05.576Z,21.9
2019-01-21T03:44:04.666Z,21.9
2019-01-21T03:46:05.414Z,21.9
2019-01-21T03:48:05.167Z,21.9
2019-01-21T03:50:04.928Z,21.9
2019-01-21T03:52:04.649Z,21.9
2019-01-21T03:54:05.428Z,21.9
2019-01-21T03:56:05.176Z,21.9
2019-01-21T03:58:05.649Z,21.9
2019-01-21T04:00:05.436Z,21.9
2019-01-21T04:02:09.657Z,21.9
2019-01-21T04:04:05.436Z,21.9
2019-01-21T04:06:15.261Z,21.9
2019-01-21T04:08:08.045Z,21.8
2019-01-21T04:10:05.547Z,21.8
2019-01-21T04:12:05.273Z,21.9
2019-01-21T04:14:04.953Z,21.9
2019-01-21T04:16:04.709Z,21.9
2019-01-21T04:18:05.292Z,21.8
2019-01-21T04:20:04.981Z,21.9
2019-01-21T04:22:05.466Z,21.8
2019-01-21T04:24:05.191Z,21.8
2019-01-21T04:26:07.673Z,21.8
2019-01-21T04:28:07.918Z,21.8
2019-01-21T04:30:07.152Z,21.8
2019-01-21T04:32:04.868Z,21.8
2019-01-21T04:34:05.600Z,21.7
2019-01-21T04:36:05.502Z,21.7
2019-01-21T04:38:05.173Z,21.7
2019-01-21T04:40:04.967Z,21.7
2019-01-21T04:42:04.773Z,21.7
2019-01-21T04:44:05.281Z,21.7
2019-01-21T04:46:05.089Z,21.8
2019-01-21T04:48:04.903Z,21.7
2019-01-21T04:50:04.625Z,21.7
2019-01-21T04:52:05.520Z,21.7
2019-01-21T04:54:04.776Z,21.7
2019-01-21T04:56:05.516Z,21.7
2019-01-21T04:58:05.215Z,21.7
2019-01-21T05:00:04.896Z,21.7
2019-01-21T05:02:04.619Z,21.7
2019-01-21T05:04:04.820Z,21.7
2019-01-21T05:06:05.680Z,21.8
2019-01-21T05:08:05.359Z,21.8
2019-01-21T05:10:13.177Z,21.8
2019-01-21T05:12:12.590Z,21.9
2019-01-21T05:14:05.413Z,21.8
2019-01-21T05:16:09.801Z,21.9
2019-01-21T05:18:04.871Z,21.9
2019-01-21T05:20:09.339Z,21.8
2019-01-21T05:22:05.130Z,21.9
2019-01-21T05:24:07.358Z,21.9
2019-01-21T05:26:05.192Z,21.8
2019-01-21T05:28:13.739Z,21.9
2019-01-21T05:30:10.417Z,21.9
2019-01-21T05:32:05.227Z,21.9
2019-01-21T05:34:05.179Z,21.9
2019-01-21T05:36:04.889Z,21.9
2019-01-21T05:38:05.603Z,22
2019-01-21T05:40:04.868Z,22
2019-01-21T05:42:08.142Z,21.9
2019-01-21T05:44:04.906Z,21.9
2019-01-21T05:46:04.752Z,21.9
2019-01-21T05:48:05.573Z,21.9
2019-01-21T05:50:05.258Z,21.9
2019-01-21T05:52:07.514Z,21.9
2019-01-21T05:54:04.757Z,21.9
2019-01-21T05:56:05.480Z,21.9
2019-01-21T05:58:05.169Z,21.9
2019-01-21T06:00:04.927Z,21.8
2019-01-21T06:02:10.656Z,21.9
2019-01-21T06:04:05.306Z,21.8
2019-01-21T06:06:05.512Z,21.9
2019-01-21T06:08:07.822Z,21.8
2019-01-21T06:10:05.514Z,21.9
2019-01-21T06:12:04.747Z,21.8
2019-01-21T06:14:05.499Z,21.8
2019-01-21T06:16:07.706Z,21.8
2019-01-21T06:18:05.633Z,21.8
2019-01-21T06:20:05.307Z,21.8
2019-01-21T06:22:04.966Z,21.8
2019-01-21T06:24:09.813Z,21.7
2019-01-21T06:26:05.535Z,21.7
2019-01-21T06:28:05.247Z,21.7
2019-01-21T06:30:05.478Z,21.7
2019-01-21T06:32:12.370Z,21.8
2019-01-21T06:34:05.067Z,21.8
2019-01-21T06:36:04.746Z,21.8
2019-01-21T06:38:05.413Z,21.9
2019-01-21T06:40:10.157Z,21.8
2019-01-21T06:42:05.450Z,21.9
2019-01-21T06:44:05.195Z,21.9
2019-01-21T06:46:07.532Z,21.9
2019-01-21T06:48:04.755Z,21.8
2019-01-21T06:50:05.540Z,21.9
2019-01-21T06:52:07.782Z,21.9
2019-01-21T06:54:05.649Z,21.9
2019-01-21T06:56:05.425Z,21.9
2019-01-21T06:58:07.627Z,21.9
2019-01-21T07:00:05.293Z,21.9
2019-01-21T07:02:17.619Z,21.9
2019-01-21T07:04:05.063Z,21.9
2019-01-21T07:06:04.847Z,21.9
2019-01-21T07:08:05.596Z,21.9
2019-01-21T07:10:05.276Z,21.9
2019-01-21T07:12:04.948Z,21.9
2019-01-21T07:14:04.674Z,21.9
2019-01-21T07:16:10.458Z,21.9
2019-01-21T07:18:10.449Z,21.8
2019-01-21T07:20:07.651Z,21.9
2019-01-21T07:22:05.339Z,21.8
2019-01-21T07:24:05.518Z,21.8
2019-01-21T07:26:05.196Z,21.8
2019-01-21T07:28:05.398Z,21.8
2019-01-21T07:30:05.082Z,21.8
2019-01-21T07:32:04.813Z,21.8
2019-01-21T07:34:08.013Z,21.7
2019-01-21T07:36:07.309Z,21.7
2019-01-21T07:38:04.995Z,21.7
2019-01-21T07:40:07.189Z,21.7
2019-01-21T07:42:04.880Z,21.7
2019-01-21T07:44:05.597Z,21.8
2019-01-21T07:46:05.355Z,21.8
2019-01-21T07:48:05.219Z,21.8
2019-01-21T07:50:05.608Z,21.8
2019-01-21T07:52:07.807Z,21.9
2019-01-21T07:54:05.016Z,21.9
2019-01-21T07:56:04.810Z,21.9
2019-01-21T07:58:05.471Z,22
2019-01-21T08:00:05.217Z,22
2019-01-21T08:02:04.936Z,22
2019-01-21T08:04:09.699Z,22
2019-01-21T08:06:05.403Z,22
2019-01-21T08:08:05.083Z,21.8
2019-01-21T08:10:04.781Z,21.9
2019-01-21T08:12:04.957Z,21.9
2019-01-21T08:14:04.666Z,21.8
2019-01-21T08:16:04.870Z,21.7
2019-01-21T08:18:05.356Z,21.7
2019-01-21T08:20:05.052Z,21.7
2019-01-21T08:22:05.009Z,21.7
2019-01-21T08:24:04.759Z,21.8
2019-01-21T08:26:05.009Z,21.9
2019-01-21T08:28:04.722Z,21.9
2019-01-21T08:30:05.513Z,21.9
2019-01-21T08:32:07.692Z,22
2019-01-21T08:34:05.357Z,22
2019-01-21T08:36:05.524Z,22
2019-01-21T08:38:05.157Z,22
2019-01-21T08:40:04.869Z,21.9
2019-01-21T08:42:05.559Z,22
2019-01-21T08:44:05.288Z,22.1
2019-01-21T08:46:07.520Z,22.2
2019-01-21T08:48:05.264Z,22.2
2019-01-21T08:50:05.446Z,22.2
2019-01-21T08:52:05.106Z,22.2
2019-01-21T08:54:05.372Z,22.3
2019-01-21T08:56:07.644Z,22.3
2019-01-21T08:58:04.909Z,22.3
2019-01-21T09:00:05.590Z,22.3
2019-01-21T09:02:05.281Z,22.4
2019-01-21T09:04:04.998Z,22.4
2019-01-21T09:06:04.672Z,22.4
2019-01-21T09:08:05.353Z,22.4
2019-01-21T09:10:05.274Z,22.4
2019-01-21T09:12:05.023Z,22.5
2019-01-21T09:14:04.742Z,22.5
2019-01-21T09:16:05.407Z,22.5
2019-01-21T09:18:04.798Z,22.6
2019-01-21T09:20:10.585Z,22.6
2019-01-21T09:22:07.626Z,22.6
2019-01-21T09:24:07.863Z,22.6
2019-01-21T09:26:05.040Z,22.6
2019-01-21T09:28:04.726Z,22.6
2019-01-21T09:30:05.397Z,22.6
2019-01-21T09:32:08.170Z,22.6
2019-01-21T09:34:07.376Z,22.6
2019-01-21T09:36:07.629Z,22.7
2019-01-21T09:38:08.005Z,22.7
2019-01-21T09:40:04.634Z,22.6
2019-01-21T09:42:05.311Z,22.7
2019-01-21T09:44:07.530Z,22.7
2019-01-21T09:46:04.725Z,22.7
2019-01-21T09:48:05.386Z,22.7
2019-01-21T09:50:10.172Z,22.8
2019-01-21T09:52:12.494Z,22.8
2019-01-21T09:54:05.142Z,22.8
2019-01-21T09:56:04.872Z,22.8
2019-01-21T09:58:05.115Z,22.8
2019-01-21T10:00:04.830Z,22.8
2019-01-21T10:02:05.161Z,22.8
2019-01-21T10:04:04.853Z,22.8
2019-01-21T10:06:05.518Z,22.8
2019-01-21T10:08:05.197Z,22.7
2019-01-21T10:10:05.388Z,22.7
2019-01-21T10:12:07.802Z,22.6
2019-01-21T10:14:08.077Z,22.6
2019-01-21T10:16:04.866Z,22.6
2019-01-21T10:18:04.823Z,22.5
2019-01-21T10:20:05.608Z,22.5
2019-01-21T10:22:05.268Z,22.5
2019-01-21T10:24:04.973Z,22.4
2019-01-21T10:26:04.881Z,22.4
2019-01-21T10:28:05.606Z,22.3
2019-01-21T10:30:05.309Z,22.2
2019-01-21T10:32:05.045Z,22.2
2019-01-21T10:34:07.695Z,22.1
2019-01-21T10:36:05.438Z,22.1
2019-01-21T10:38:05.248Z,22.1
2019-01-21T10:40:07.906Z,22.1
2019-01-21T10:42:04.765Z,22.1
2019-01-21T10:44:08.019Z,22.2
2019-01-21T10:46:04.823Z,22.2
2019-01-21T10:48:07.696Z,22.1
2019-01-21T10:50:05.361Z,22.1
2019-01-21T10:52:05.049Z,22.1
2019-01-21T10:54:04.747Z,22.1
2019-01-21T10:56:04.943Z,22.1
2019-01-21T10:58:12.212Z,22.1
2019-01-21T11:00:04.891Z,22.1
2019-01-21T11:02:05.157Z,22.1
2019-01-21T11:04:07.380Z,22.1
2019-01-21T11:06:07.752Z,22.1
2019-01-21T11:08:08.037Z,22.1
2019-01-21T11:10:07.240Z,22
2019-01-21T11:12:07.525Z,22.1
2019-01-21T11:14:05.197Z,22.1
2019-01-21T11:16:04.901Z,22.1
2019-01-21T11:18:07.292Z,22
2019-01-21T11:20:04.947Z,22.1
2019-01-21T11:22:07.685Z,22
2019-01-21T11:24:10.421Z,22
2019-01-21T11:26:08.138Z,22
2019-01-21T11:28:05.359Z,22.1
2019-01-21T11:30:05.030Z,22
2019-01-21T11:32:05.257Z,22
2019-01-21T11:34:11.493Z,22
2019-01-21T11:36:07.287Z,22.1
2019-01-21T11:38:05.551Z,22.1
2019-01-21T11:40:05.226Z,22.1
2019-01-21T11:42:10.135Z,22.1
2019-01-21T11:44:07.883Z,22.2
2019-01-21T11:46:05.572Z,22.1
2019-01-21T11:48:05.243Z,22.2
2019-01-21T11:50:10.421Z,22.3
2019-01-21T11:52:05.346Z,22.3
2019-01-21T11:54:05.007Z,22.3
2019-01-21T11:56:05.589Z,22.4
2019-01-21T11:58:04.873Z,22.5
2019-01-21T12:00:05.118Z,22.5
2019-01-21T12:02:04.812Z,22.5
2019-01-21T12:04:05.052Z,22.5
2019-01-21T12:06:04.913Z,22.5
2019-01-21T12:08:05.624Z,22.5
2019-01-21T12:10:04.956Z,22.5
2019-01-21T12:12:04.663Z,22.4
2019-01-21T12:14:05.457Z,22.4
2019-01-21T12:16:05.185Z,22.3
2019-01-21T12:18:05.073Z,22.3
2019-01-21T12:20:07.321Z,22.2
2019-01-21T12:22:05.017Z,22.2
2019-01-21T12:24:04.725Z,22.1
2019-01-21T12:26:05.466Z,22.1
2019-01-21T12:28:05.255Z,22.1
2019-01-21T12:30:05.026Z,22.1
2019-01-21T12:32:04.788Z,22
2019-01-21T12:34:05.442Z,22.1
2019-01-21T12:36:07.733Z,22
2019-01-21T12:38:12.992Z,22
2019-01-21T12:40:04.723Z,22
2019-01-21T12:42:05.409Z,22
2019-01-21T12:44:05.143Z,22
2019-01-21T12:46:04.917Z,22
2019-01-21T12:48:05.143Z,22
2019-01-21T12:50:04.892Z,22
2019-01-21T12:52:05.586Z,21.9
2019-01-21T12:54:07.863Z,21.9
2019-01-21T12:56:05.550Z,21.9
2019-01-21T12:58:05.264Z,22
2019-01-21T13:00:06.176Z,21.9
2019-01-21T13:02:04.914Z,21.9
2019-01-21T13:04:08.121Z,21.9
2019-01-21T13:06:04.853Z,21.9
2019-01-21T13:08:05.573Z,21.9
2019-01-21T13:10:07.574Z,21.9
2019-01-21T13:12:07.335Z,21.9
2019-01-21T13:14:05.486Z,21.9
2019-01-21T13:16:10.206Z,21.9
2019-01-21T13:18:05.066Z,21.9
2019-01-21T13:20:04.791Z,21.9
2019-01-21T13:22:05.492Z,21.9
2019-01-21T13:24:07.709Z,21.9
2019-01-21T13:26:05.442Z,21.9
2019-01-21T13:28:05.124Z,21.9
2019-01-21T13:30:07.381Z,21.9
2019-01-21T13:32:05.114Z,21.9
2019-01-21T13:34:04.818Z,21.9
2019-01-21T13:36:05.557Z,21.9
2019-01-21T13:38:05.216Z,21.9
2019-01-21T13:40:04.879Z,21.9
2019-01-21T13:42:05.529Z,21.9
2019-01-21T13:44:05.291Z,21.9
2019-01-21T13:46:05.398Z,21.9
2019-01-21T13:48:05.165Z,21.9
2019-01-21T13:50:04.822Z,21.9
2019-01-21T13:52:05.525Z,21.9
2019-01-21T13:54:05.203Z,21.9
2019-01-21T13:56:04.889Z,22
2019-01-21T13:58:05.601Z,22
2019-01-21T14:00:07.835Z,22.1
2019-01-21T14:02:08.258Z,22.2
2019-01-21T14:04:05.253Z,22.2
2019-01-21T14:06:04.907Z,22.2
2019-01-21T14:08:09.927Z,22.3
2019-01-21T14:10:05.638Z,22.2
2019-01-21T14:12:05.551Z,22.2
2019-01-21T14:14:05.284Z,22.2
2019-01-21T14:16:10.645Z,22.2
2019-01-21T14:18:05.531Z,22.2
2019-01-21T14:20:05.572Z,22.2
2019-01-21T14:22:05.435Z,22.2
2019-01-21T14:24:05.129Z,22.2
2019-01-21T14:26:04.834Z,22.2
2019-01-21T14:28:08.096Z,22.2
2019-01-21T14:30:04.897Z,22.2
2019-01-21T14:32:05.625Z,22.2
2019-01-21T14:34:05.486Z,22.1
2019-01-21T14:36:05.031Z,22.1
2019-01-21T14:38:04.957Z,22.2
2019-01-21T14:40:07.757Z,22.1
2019-01-21T14:42:13.091Z,22.1
2019-01-21T14:44:04.838Z,22.1
2019-01-21T14:46:05.573Z,22.1
2019-01-21T14:48:05.563Z,22.1
2019-01-21T14:50:05.301Z,22.1
2019-01-21T14:52:05.074Z,22.1
2019-01-21T14:54:04.802Z,22.1
2019-01-21T14:56:05.537Z,22.1
2019-01-21T14:58:05.344Z,22.1
2019-01-21T15:00:07.749Z,22.1
2019-01-21T15:02:07.289Z,22
2019-01-21T15:04:07.350Z,22.1
2019-01-21T15:06:04.759Z,22.1
2019-01-21T15:08:05.573Z,22.1
2019-01-21T15:10:04.876Z,22.1
2019-01-21T15:12:04.818Z,22.1
2019-01-21T15:14:04.775Z,22.1
2019-01-21T15:16:07.283Z,22.1
2019-01-21T15:18:10.366Z,22.1
2019-01-21T15:20:04.693Z,22.1
2019-01-21T15:22:05.581Z,22.1
2019-01-21T15:24:05.058Z,22.2
2019-01-21T15:26:05.120Z,22.2
2019-01-21T15:28:05.109Z,22.2
2019-01-21T15:30:05.147Z,22.1
2019-01-21T15:32:04.973Z,22.2
2019-01-21T15:34:04.901Z,22.2
2019-01-21T15:36:05.378Z,22.2
2019-01-21T15:38:05.468Z,22.2
2019-01-21T15:40:04.774Z,22.1
2019-01-21T15:42:04.935Z,22
2019-01-21T15:44:04.757Z,22
2019-01-21T15:46:04.745Z,22
2019-01-21T15:48:10.624Z,21.9
2019-01-21T15:50:05.619Z,21.9
2019-01-21T15:52:05.317Z,22
2019-01-21T15:54:05.073Z,21.9
2019-01-21T15:56:04.766Z,21.9
2019-01-21T15:58:05.406Z,21.9
2019-01-21T16:00:05.111Z,21.9
2019-01-21T16:02:07.365Z,21.8
2019-01-21T16:04:07.562Z,21.9
2019-01-21T16:06:10.409Z,21.8
2019-01-21T16:08:06.337Z,21.8
2019-01-21T16:10:05.098Z,21.8
2019-01-21T16:12:04.787Z,21.8
2019-01-21T16:14:05.574Z,21.8
2019-01-21T16:16:09.892Z,21.7
2019-01-21T16:18:04.812Z,21.8
2019-01-21T16:20:05.505Z,21.7
2019-01-21T16:22:04.785Z,21.8
2019-01-21T16:24:05.512Z,21.8
2019-01-21T16:26:05.174Z,21.7
2019-01-21T16:28:05.217Z,21.7
2019-01-21T16:30:04.965Z,21.8
2019-01-21T16:32:09.891Z,21.8
2019-01-21T16:34:12.662Z,21.8
2019-01-21T16:36:05.546Z,21.9
2019-01-21T16:38:05.415Z,21.9
2019-01-21T16:40:05.176Z,21.9
2019-01-21T16:42:04.972Z,21.9
2019-01-21T16:44:05.239Z,21.9
2019-01-21T16:46:07.482Z,21.9
2019-01-21T16:48:04.852Z,21.9
2019-01-21T16:50:05.558Z,21.9
2019-01-21T16:52:07.367Z,21.9
2019-01-21T16:54:07.608Z,21.9
2019-01-21T16:56:05.279Z,21.9
2019-01-21T16:58:08.009Z,21.9
2019-01-21T17:00:04.713Z,21.9
2019-01-21T17:02:05.417Z,21.8
2019-01-21T17:04:05.536Z,21.9
2019-01-21T17:06:04.659Z,21.9
2019-01-21T17:08:05.331Z,21.9
2019-01-21T17:10:05.649Z,21.9
2019-01-21T17:12:10.427Z,22
2019-01-21T17:14:04.661Z,22
2019-01-21T17:16:07.859Z,22.1
2019-01-21T17:18:04.857Z,22.1
2019-01-21T17:20:05.718Z,22.1
2019-01-21T17:22:05.434Z,22.1
2019-01-21T17:24:05.152Z,22.2
2019-01-21T17:26:04.867Z,22.2
2019-01-21T17:28:05.085Z,22.2
2019-01-21T17:30:07.854Z,22.2
2019-01-21T17:32:05.547Z,22.2
2019-01-21T17:34:05.228Z,22.2
2019-01-21T17:36:04.979Z,22.2
2019-01-21T17:38:04.678Z,22.2
2019-01-21T17:40:04.908Z,22.2
2019-01-21T17:42:05.142Z,22.2
2019-01-21T17:44:05.490Z,22.2
2019-01-21T17:46:07.718Z,22.2
2019-01-21T17:48:07.157Z,22.2
2019-01-21T17:50:04.856Z,22.2
2019-01-21T17:52:05.534Z,22.2
2019-01-21T17:54:05.245Z,22.2
2019-01-21T17:56:04.977Z,22.2
2019-01-21T17:58:04.714Z,22.2
2019-01-21T18:00:05.425Z,22.2
2019-01-21T18:02:07.715Z,22.2
2019-01-21T18:04:07.956Z,22.2
2019-01-21T18:06:04.840Z,22.2
2019-01-21T18:08:05.497Z,22.2
2019-01-21T18:10:07.902Z,22.2
2019-01-21T18:12:05.374Z,22.2
2019-01-21T18:14:05.576Z,22.2
2019-01-21T18:16:05.306Z,22.2
2019-01-21T18:18:05.198Z,22.2
2019-01-21T18:20:07.649Z,22.2
2019-01-21T18:22:05.451Z,22.2
2019-01-21T18:24:05.080Z,22.2
2019-01-21T18:26:07.338Z,22.2
2019-01-21T18:28:12.591Z,22.2
2019-01-21T18:30:04.812Z,22.2
2019-01-21T18:32:05.481Z,22.2
2019-01-21T18:34:05.309Z,22.2
2019-01-21T18:36:04.973Z,22.2
2019-01-21T18:38:17.544Z,22.2
2019-01-21T18:40:05.192Z,22.2
2019-01-21T18:42:05.192Z,22.3
2019-01-21T18:44:04.880Z,22.2
2019-01-21T18:46:07.704Z,22.2
2019-01-21T18:48:05.393Z,22.2
2019-01-21T18:50:05.119Z,22.2
2019-01-21T18:52:05.282Z,22.3
2019-01-21T18:54:05.004Z,22.2
2019-01-21T18:56:04.729Z,22.3
2019-01-21T18:58:05.480Z,22.3
2019-01-21T19:00:07.220Z,22.3
2019-01-21T19:02:09.987Z,22.3
2019-01-21T19:04:07.524Z,22.3
2019-01-21T19:06:05.278Z,22.3
2019-01-21T19:08:04.947Z,22.3
2019-01-21T19:10:04.672Z,22.3
2019-01-21T19:12:05.345Z,22.2
2019-01-21T19:14:05.096Z,22.2
2019-01-21T19:16:09.847Z,22.2
2019-01-21T19:18:04.794Z,22.2
2019-01-21T19:20:05.454Z,22.2
2019-01-21T19:22:05.184Z,22.2
2019-01-21T19:24:04.884Z,22.2
2019-01-21T19:26:04.638Z,22.1
2019-01-21T19:28:05.334Z,22.1
2019-01-21T19:30:05.276Z,22.1
2019-01-21T19:32:10.010Z,22.1
2019-01-21T19:34:04.918Z,22.1
2019-01-21T19:36:05.352Z,22.1
2019-01-21T19:38:05.111Z,22.1
2019-01-21T19:40:04.856Z,22.1
2019-01-21T19:42:05.502Z,22.1
2019-01-21T19:44:07.741Z,22.1
2019-01-21T19:46:05.487Z,22
2019-01-21T19:48:04.689Z,22
2019-01-21T19:50:04.983Z,22
2019-01-21T19:52:07.264Z,22
2019-01-21T19:54:04.920Z,22
2019-01-21T19:56:04.682Z,22
2019-01-21T19:58:05.339Z,22
2019-01-21T20:00:05.077Z,22
2019-01-21T20:02:04.736Z,22.1
2019-01-21T20:04:05.485Z,22
2019-01-21T20:06:10.261Z,22.1
2019-01-21T20:08:08.109Z,22
2019-01-21T20:10:09.833Z,22
2019-01-21T20:12:05.481Z,22
2019-01-21T20:14:05.218Z,22.1
2019-01-21T20:16:05.581Z,22.1
2019-01-21T20:18:08.020Z,22.1
2019-01-21T20:20:07.311Z,22.1
2019-01-21T20:22:07.410Z,22.1
2019-01-21T20:24:05.560Z,22.1
2019-01-21T20:26:07.787Z,22.1
2019-01-21T20:28:05.491Z,22.1
2019-01-21T20:30:05.325Z,22.1
2019-01-21T20:32:04.636Z,22.1
2019-01-21T20:34:07.422Z,22
2019-01-21T20:36:05.092Z,22
2019-01-21T20:38:04.759Z,22
2019-01-21T20:40:05.461Z,22
2019-01-21T20:42:05.164Z,22
2019-01-21T20:44:04.825Z,22
2019-01-21T20:46:05.603Z,22
2019-01-21T20:48:05.415Z,22
2019-01-21T20:50:07.606Z,22
2019-01-21T20:52:05.576Z,22
2019-01-21T20:54:05.178Z,22
2019-01-21T20:56:04.910Z,21.9
2019-01-21T20:58:05.175Z,21.9
2019-01-21T21:00:07.369Z,21.9
2019-01-21T21:02:05.148Z,22
2019-01-21T21:04:05.601Z,22
2019-01-21T21:06:07.889Z,22
2019-01-21T21:08:15.659Z,22
2019-01-21T21:10:05.463Z,22
2019-01-21T21:12:05.143Z,22
2019-01-21T21:14:04.900Z,22
2019-01-21T21:16:04.724Z,22
2019-01-21T21:18:05.817Z,22
2019-01-21T21:20:10.294Z,22
2019-01-21T21:22:09.592Z,22
2019-01-21T21:24:05.270Z,21.9
2019-01-21T21:26:10.048Z,22
2019-01-21T21:28:07.428Z,22
2019-01-21T21:30:10.239Z,22.1
2019-01-21T21:32:04.998Z,22
2019-01-21T21:34:04.915Z,22.1
2019-01-21T21:36:05.149Z,22
2019-01-21T21:38:05.177Z,22
2019-01-21T21:40:05.072Z,22
2019-01-21T21:42:07.893Z,22
2019-01-21T21:44:04.934Z,22
2019-01-21T21:46:04.813Z,22
2019-01-21T21:48:04.985Z,22
2019-01-21T21:50:07.948Z,22
2019-01-21T21:52:05.221Z,22
2019-01-21T21:54:09.985Z,22
2019-01-21T21:56:07.330Z,22
2019-01-21T21:58:05.182Z,22
2019-01-21T22:00:05.103Z,22
2019-01-21T22:02:05.618Z,22
2019-01-21T22:04:05.351Z,21.9
2019-01-21T22:06:05.124Z,21.9
2019-01-21T22:08:07.647Z,21.9
2019-01-21T22:10:04.941Z,21.9
2019-01-21T22:12:10.194Z,21.9
2019-01-21T22:14:08.452Z,21.8
2019-01-21T22:16:05.536Z,21.8
2019-01-21T22:18:05.543Z,21.8
2019-01-21T22:20:05.409Z,21.8
2019-01-21T22:22:05.164Z,21.8
2019-01-21T22:24:05.484Z,21.8
2019-01-21T22:26:05.388Z,21.7
2019-01-21T22:28:05.299Z,21.7
2019-01-21T22:30:07.731Z,21.7
2019-01-21T22:32:05.262Z,21.7
2019-01-21T22:34:05.115Z,21.7
2019-01-21T22:36:05.506Z,21.7
2019-01-21T22:38:05.938Z,21.6
2019-01-21T22:40:07.894Z,21.6
2019-01-21T22:42:05.536Z,21.6
2019-01-21T22:44:08.190Z,21.5
2019-01-21T22:46:04.935Z,21.5
2019-01-21T22:48:04.845Z,21.5
2019-01-21T22:50:08.065Z,21.5
2019-01-21T22:52:04.833Z,21.5
2019-01-21T22:54:05.448Z,21.5
2019-01-21T22:56:06.262Z,21.5
2019-01-21T22:58:08.138Z,21.5
2019-01-21T23:02:06.205Z,21.5
2019-01-21T23:04:06.611Z,21.5
2019-01-21T23:06:19.856Z,21.5
2019-01-21T23:08:08.034Z,21.5
2019-01-21T23:12:07.740Z,21.4
2019-01-21T23:14:05.111Z,21.4
2019-01-21T23:16:05.370Z,21.4
2019-01-21T23:18:05.588Z,21.3
2019-01-21T23:20:07.882Z,21.3
2019-01-21T23:22:05.579Z,21.3
2019-01-21T23:24:05.326Z,21.3
2019-01-21T23:26:08.040Z,21.3
2019-01-21T23:28:04.772Z,21.3
2019-01-21T23:30:05.030Z,21.3
2019-01-21T23:32:05.781Z,21.2
2019-01-21T23:34:05.485Z,21.2
2019-01-21T23:36:05.402Z,21.2
2019-01-21T23:38:08.089Z,21.2
2019-01-21T23:40:04.777Z,21.2
2019-01-21T23:42:05.571Z,21.2
2019-01-21T23:44:05.333Z,21.2
2019-01-21T23:46:07.778Z,21.1
2019-01-21T23:48:05.486Z,21.1
2019-01-21T23:50:05.180Z,21.1
2019-01-21T23:52:05.014Z,21.1
2019-01-21T23:54:05.769Z,21.1
2019-01-21T23:56:05.608Z,21.1
2019-01-21T23:58:05.435Z,21
